createdAt,value
2018-10-17T00:00:18.460Z,99.99
2018-10-17T00:00:53.927Z,99.99
2018-10-17T00:01:29.173Z,99.99
2018-10-17T00:02:04.715Z,99.99
2018-10-17T00:02:40.051Z,99.99
2018-10-17T00:03:15.346Z,99.99
2018-10-17T00:03:50.801Z,99.99
2018-10-17T00:04:26.235Z,99.99
2018-10-17T00:05:01.773Z,99.99
2018-10-17T00:05:37.123Z,99.99
2018-10-17T00:06:12.430Z,99.99
2018-10-17T00:06:47.759Z,99.99
2018-10-17T00:07:23.052Z,99.99
2018-10-17T00:07:58.372Z,99.99
2018-10-17T00:08:33.675Z,99.99
2018-10-17T00:09:08.788Z,99.99
2018-10-17T00:09:44.301Z,99.99
2018-10-17T00:10:19.935Z,99.99
2018-10-17T00:10:55.282Z,99.99
2018-10-17T00:11:30.605Z,99.99
2018-10-17T00:12:06.069Z,99.99
2018-10-17T00:12:41.620Z,99.99
2018-10-17T00:13:16.930Z,99.99
2018-10-17T00:13:52.179Z,99.99
2018-10-17T00:14:27.530Z,99.99
2018-10-17T00:15:02.709Z,99.99
2018-10-17T00:15:38.253Z,99.99
2018-10-17T00:16:13.645Z,99.99
2018-10-17T00:16:48.976Z,99.99
2018-10-17T00:17:24.391Z,99.99
2018-10-17T00:17:59.704Z,99.99
2018-10-17T00:18:35.154Z,99.99
2018-10-17T00:19:10.487Z,99.99
2018-10-17T00:19:45.811Z,99.99
2018-10-17T00:20:21.234Z,99.99
2018-10-17T00:20:56.910Z,99.99
2018-10-17T00:21:32.126Z,99.99
2018-10-17T00:22:07.540Z,99.99
2018-10-17T00:22:42.897Z,99.99
2018-10-17T00:23:18.199Z,99.99
2018-10-17T00:23:53.564Z,99.99
2018-10-17T00:24:29.096Z,99.99
2018-10-17T00:25:04.585Z,99.99
2018-10-17T00:25:39.925Z,99.99
2018-10-17T00:26:15.343Z,99.99
2018-10-17T00:26:50.490Z,99.99
2018-10-17T00:27:26.185Z,99.99
2018-10-17T00:28:01.414Z,99.99
2018-10-17T00:28:36.843Z,99.99
2018-10-17T00:29:12.409Z,99.99
2018-10-17T00:29:47.706Z,99.99
2018-10-17T00:30:23.315Z,99.99
2018-10-17T00:30:58.482Z,99.99
2018-10-17T00:31:33.551Z,99.99
2018-10-17T00:32:08.763Z,99.99
2018-10-17T00:32:44.102Z,99.99
2018-10-17T00:33:19.496Z,99.99
2018-10-17T00:33:55.115Z,99.99
2018-10-17T00:34:30.542Z,99.99
2018-10-17T00:35:05.745Z,99.99
2018-10-17T00:35:40.913Z,99.99
2018-10-17T00:36:16.453Z,99.99
2018-10-17T00:36:52.111Z,99.99
2018-10-17T00:37:27.899Z,99.99
2018-10-17T00:38:03.290Z,99.99
2018-10-17T00:38:38.763Z,99.99
2018-10-17T00:39:14.042Z,99.99
2018-10-17T00:39:49.471Z,99.99
2018-10-17T00:40:24.860Z,99.99
2018-10-17T00:41:00.208Z,99.99
2018-10-17T00:41:35.367Z,99.99
2018-10-17T00:42:10.588Z,99.99
2018-10-17T00:42:45.710Z,99.99
2018-10-17T00:43:21.124Z,99.99
2018-10-17T00:43:56.636Z,99.99
2018-10-17T00:44:32.120Z,99.99
2018-10-17T00:45:07.463Z,99.99
2018-10-17T00:45:43.005Z,99.99
2018-10-17T00:46:18.441Z,99.99
2018-10-17T00:46:53.791Z,99.99
2018-10-17T00:47:29.308Z,99.99
2018-10-17T00:48:04.575Z,99.99
2018-10-17T00:48:40.140Z,99.99
2018-10-17T00:49:15.315Z,99.99
2018-10-17T00:49:50.980Z,99.99
2018-10-17T00:50:26.113Z,99.99
2018-10-17T00:51:01.533Z,99.99
2018-10-17T00:51:36.998Z,99.99
2018-10-17T00:52:12.824Z,99.99
2018-10-17T00:52:48.478Z,99.99
2018-10-17T00:53:23.974Z,99.99
2018-10-17T00:54:00.097Z,99.99
2018-10-17T00:54:35.613Z,99.99
2018-10-17T00:55:11.184Z,99.99
2018-10-17T00:55:46.620Z,99.99
2018-10-17T00:56:22.249Z,99.99
2018-10-17T00:56:57.460Z,99.99
2018-10-17T00:57:32.617Z,99.99
2018-10-17T00:58:07.961Z,99.99
2018-10-17T00:58:43.274Z,99.99
2018-10-17T00:59:18.804Z,99.99
2018-10-17T00:59:54.303Z,99.99
2018-10-17T01:00:29.603Z,99.99
2018-10-17T01:01:05.167Z,99.99
2018-10-17T01:01:40.685Z,99.99
2018-10-17T01:02:16.196Z,99.99
2018-10-17T01:02:51.405Z,99.99
2018-10-17T01:03:26.907Z,99.99
2018-10-17T01:04:02.444Z,99.99
2018-10-17T01:04:37.474Z,99.99
2018-10-17T01:05:13.194Z,99.99
2018-10-17T01:05:48.739Z,99.99
2018-10-17T01:06:24.273Z,99.99
2018-10-17T01:07:00.092Z,99.99
2018-10-17T01:07:35.514Z,99.99
2018-10-17T01:08:11.013Z,99.99
2018-10-17T01:08:46.271Z,99.99
2018-10-17T01:09:21.796Z,99.99
2018-10-17T01:09:57.348Z,99.99
2018-10-17T01:10:32.976Z,99.99
2018-10-17T01:11:08.321Z,99.99
2018-10-17T01:11:43.734Z,99.99
2018-10-17T01:12:19.098Z,99.99
2018-10-17T01:12:54.850Z,99.99
2018-10-17T01:13:30.167Z,99.99
2018-10-17T01:14:05.318Z,99.99
2018-10-17T01:14:40.946Z,99.99
2018-10-17T01:15:16.383Z,99.99
2018-10-17T01:15:51.976Z,99.99
2018-10-17T01:16:27.427Z,99.99
2018-10-17T01:17:08.089Z,99.99
2018-10-17T01:17:44.118Z,99.99
2018-10-17T01:18:19.455Z,99.99
2018-10-17T01:18:56.729Z,99.99
2018-10-17T01:19:32.054Z,99.99
2018-10-17T01:20:07.895Z,99.99
2018-10-17T01:20:43.167Z,99.99
2018-10-17T01:21:18.579Z,99.99
2018-10-17T01:21:54.168Z,99.99
2018-10-17T01:22:31.209Z,99.99
2018-10-17T01:23:06.925Z,99.99
2018-10-17T01:23:42.695Z,99.99
2018-10-17T01:24:19.273Z,99.99
2018-10-17T01:24:54.740Z,99.99
2018-10-17T01:25:30.307Z,99.99
2018-10-17T01:26:05.623Z,99.99
2018-10-17T01:26:41.493Z,99.99
2018-10-17T01:27:17.442Z,99.99
2018-10-17T01:27:53.246Z,99.99
2018-10-17T01:28:29.433Z,99.99
2018-10-17T01:29:05.044Z,99.99
2018-10-17T01:29:40.413Z,99.99
2018-10-17T01:30:15.863Z,99.99
2018-10-17T01:30:51.413Z,99.99
2018-10-17T01:31:26.854Z,99.99
2018-10-17T01:32:02.573Z,99.99
2018-10-17T01:32:38.341Z,99.99
2018-10-17T01:33:13.911Z,99.99
2018-10-17T01:33:49.084Z,99.99
2018-10-17T01:34:24.860Z,99.99
2018-10-17T01:35:00.077Z,99.99
2018-10-17T01:35:35.444Z,99.99
2018-10-17T01:36:11.245Z,99.99
2018-10-17T01:36:46.777Z,99.99
2018-10-17T01:37:22.750Z,99.99
2018-10-17T01:37:58.409Z,99.99
2018-10-17T01:38:34.033Z,99.99
2018-10-17T01:39:09.555Z,99.99
2018-10-17T01:39:45.122Z,99.99
2018-10-17T01:40:20.971Z,99.99
2018-10-17T01:40:57.156Z,99.99
2018-10-17T01:41:32.837Z,99.99
2018-10-17T01:42:08.305Z,99.99
2018-10-17T01:42:44.142Z,99.99
2018-10-17T01:43:19.571Z,99.99
2018-10-17T01:43:55.649Z,99.99
2018-10-17T01:44:30.707Z,99.99
2018-10-17T01:45:06.426Z,99.99
2018-10-17T01:45:42.159Z,99.99
2018-10-17T01:46:17.917Z,99.99
2018-10-17T01:46:53.421Z,99.99
2018-10-17T01:47:28.843Z,99.99
2018-10-17T01:48:04.616Z,99.99
2018-10-17T01:48:39.981Z,99.99
2018-10-17T01:49:15.598Z,99.99
2018-10-17T01:49:51.104Z,99.99
2018-10-17T01:50:26.430Z,99.99
2018-10-17T01:51:01.849Z,99.99
2018-10-17T01:51:37.243Z,99.99
2018-10-17T01:52:12.762Z,99.99
2018-10-17T01:52:48.532Z,99.99
2018-10-17T01:53:24.521Z,99.99
2018-10-17T01:54:00.652Z,99.99
2018-10-17T01:54:36.136Z,99.99
2018-10-17T01:55:12.189Z,99.99
2018-10-17T01:55:47.694Z,99.99
2018-10-17T01:56:23.575Z,99.99
2018-10-17T01:56:59.941Z,99.99
2018-10-17T01:57:35.389Z,99.99
2018-10-17T01:58:11.247Z,99.99
2018-10-17T01:58:46.885Z,99.99
2018-10-17T01:59:23.501Z,99.99
2018-10-17T01:59:58.960Z,99.99
2018-10-17T02:00:34.187Z,99.99
2018-10-17T02:01:10.585Z,99.99
2018-10-17T02:01:46.713Z,99.99
2018-10-17T02:02:22.106Z,99.99
2018-10-17T02:02:57.925Z,99.99
2018-10-17T02:03:33.484Z,99.99
2018-10-17T02:04:09.231Z,99.99
2018-10-17T02:04:44.831Z,99.99
2018-10-17T02:05:20.263Z,99.99
2018-10-17T02:05:55.756Z,99.99
2018-10-17T02:06:31.227Z,99.99
2018-10-17T02:07:06.983Z,99.99
2018-10-17T02:07:42.737Z,99.99
2018-10-17T02:08:18.466Z,99.99
2018-10-17T02:08:54.099Z,99.99
2018-10-17T02:09:29.931Z,99.99
2018-10-17T02:10:05.211Z,99.99
2018-10-17T02:10:40.595Z,99.99
2018-10-17T02:11:16.853Z,99.99
2018-10-17T02:11:52.947Z,99.99
2018-10-17T02:12:28.419Z,99.99
2018-10-17T02:13:04.083Z,99.99
2018-10-17T02:13:40.945Z,99.99
2018-10-17T02:14:16.407Z,99.99
2018-10-17T02:14:52.878Z,99.99
2018-10-17T02:15:28.540Z,99.99
2018-10-17T02:16:04.067Z,99.99
2018-10-17T02:16:39.678Z,99.99
2018-10-17T02:17:15.246Z,99.99
2018-10-17T02:17:50.438Z,99.99
2018-10-17T02:18:25.775Z,99.99
2018-10-17T02:19:02.857Z,99.99
2018-10-17T02:19:39.327Z,99.99
2018-10-17T02:20:15.022Z,99.99
2018-10-17T02:20:50.477Z,99.99
2018-10-17T02:21:25.691Z,99.99
2018-10-17T02:22:01.369Z,99.99
2018-10-17T02:22:37.794Z,99.99
2018-10-17T02:23:13.694Z,99.99
2018-10-17T02:23:52.622Z,99.99
2018-10-17T02:24:28.078Z,99.99
2018-10-17T02:25:03.652Z,99.99
2018-10-17T02:25:38.966Z,99.99
2018-10-17T02:26:15.453Z,99.99
2018-10-17T02:26:51.711Z,99.99
2018-10-17T02:27:27.239Z,99.99
2018-10-17T02:28:02.952Z,99.99
2018-10-17T02:28:38.402Z,99.99
2018-10-17T02:29:14.281Z,99.99
2018-10-17T02:29:50.143Z,99.99
2018-10-17T02:30:25.836Z,99.99
2018-10-17T02:31:01.299Z,99.99
2018-10-17T02:31:36.666Z,99.99
2018-10-17T02:32:12.896Z,99.99
2018-10-17T02:32:48.298Z,99.99
2018-10-17T02:33:24.595Z,99.99
2018-10-17T02:34:00.050Z,99.99
2018-10-17T02:34:35.690Z,99.99
2018-10-17T02:35:11.425Z,99.99
2018-10-17T02:35:47.462Z,99.99
2018-10-17T02:36:23.393Z,99.99
2018-10-17T02:36:59.836Z,99.99
2018-10-17T02:37:35.457Z,99.99
2018-10-17T02:38:10.930Z,99.99
2018-10-17T02:38:46.057Z,99.99
2018-10-17T02:39:21.409Z,99.99
2018-10-17T02:39:56.638Z,99.99
2018-10-17T02:40:32.312Z,99.99
2018-10-17T02:41:08.482Z,99.99
2018-10-17T02:41:43.622Z,99.99
2018-10-17T02:42:19.011Z,99.99
2018-10-17T02:42:54.505Z,99.99
2018-10-17T02:43:29.804Z,99.99
2018-10-17T02:44:05.121Z,99.99
2018-10-17T02:44:41.027Z,99.99
2018-10-17T02:45:16.346Z,99.99
2018-10-17T02:45:51.567Z,99.99
2018-10-17T02:46:27.273Z,99.99
2018-10-17T02:47:02.764Z,99.99
2018-10-17T02:47:38.374Z,99.99
2018-10-17T02:48:14.050Z,99.99
2018-10-17T02:48:49.643Z,99.99
2018-10-17T02:49:25.801Z,99.99
2018-10-17T02:50:01.446Z,99.99
2018-10-17T02:50:36.593Z,99.99
2018-10-17T02:51:12.000Z,99.99
2018-10-17T02:51:47.516Z,99.99
2018-10-17T02:52:22.981Z,99.99
2018-10-17T02:52:58.325Z,99.99
2018-10-17T02:53:33.986Z,99.99
2018-10-17T02:54:09.337Z,99.99
2018-10-17T02:54:44.550Z,99.99
2018-10-17T02:55:20.177Z,99.99
2018-10-17T02:55:55.489Z,99.99
2018-10-17T02:56:30.918Z,99.99
2018-10-17T02:57:06.483Z,99.99
2018-10-17T02:57:41.962Z,99.99
2018-10-17T02:58:17.515Z,99.99
2018-10-17T02:58:53.602Z,99.99
2018-10-17T02:59:28.928Z,99.99
2018-10-17T03:00:04.564Z,99.99
2018-10-17T03:00:39.869Z,99.99
2018-10-17T03:01:15.215Z,99.99
2018-10-17T03:01:51.011Z,99.99
2018-10-17T03:02:26.463Z,99.99
2018-10-17T03:03:01.754Z,99.99
2018-10-17T03:03:37.098Z,99.99
2018-10-17T03:04:12.422Z,99.99
2018-10-17T03:04:47.926Z,99.99
2018-10-17T03:05:23.413Z,99.99
2018-10-17T03:05:59.177Z,99.99
2018-10-17T03:06:34.492Z,99.99
2018-10-17T03:07:09.855Z,99.99
2018-10-17T03:07:45.306Z,99.99
2018-10-17T03:08:21.032Z,99.99
2018-10-17T03:08:56.467Z,99.99
2018-10-17T03:09:32.037Z,99.99
2018-10-17T03:10:07.523Z,99.99
2018-10-17T03:10:43.073Z,99.99
2018-10-17T03:11:18.511Z,99.99
2018-10-17T03:11:53.918Z,99.99
2018-10-17T03:12:29.306Z,99.99
2018-10-17T03:13:04.820Z,99.99
2018-10-17T03:13:40.058Z,99.99
2018-10-17T03:14:15.500Z,99.99
2018-10-17T03:14:50.906Z,99.99
2018-10-17T03:15:26.347Z,99.99
2018-10-17T03:16:01.862Z,99.99
2018-10-17T03:16:37.249Z,99.99
2018-10-17T03:17:12.771Z,99.99
2018-10-17T03:17:48.517Z,99.99
2018-10-17T03:18:23.756Z,99.99
2018-10-17T03:18:59.118Z,99.99
2018-10-17T03:19:34.531Z,99.99
2018-10-17T03:20:09.926Z,99.99
2018-10-17T03:20:45.314Z,99.99
2018-10-17T03:21:20.901Z,99.99
2018-10-17T03:21:56.440Z,99.99
2018-10-17T03:22:31.652Z,99.99
2018-10-17T03:23:07.123Z,99.99
2018-10-17T03:23:42.585Z,99.99
2018-10-17T03:24:18.143Z,99.99
2018-10-17T03:24:53.488Z,99.99
2018-10-17T03:25:28.695Z,99.99
2018-10-17T03:26:04.016Z,99.99
2018-10-17T03:26:39.510Z,99.99
2018-10-17T03:27:14.981Z,99.99
2018-10-17T03:27:50.220Z,99.99
2018-10-17T03:28:25.471Z,99.99
2018-10-17T03:29:00.752Z,99.99
2018-10-17T03:29:35.832Z,99.99
2018-10-17T03:30:11.558Z,99.99
2018-10-17T03:30:46.769Z,99.99
2018-10-17T03:31:22.129Z,99.99
2018-10-17T03:31:57.544Z,99.99
2018-10-17T03:32:32.650Z,99.99
2018-10-17T03:33:07.931Z,99.99
2018-10-17T03:33:43.467Z,99.99
2018-10-17T03:34:18.892Z,99.99
2018-10-17T03:34:54.170Z,99.99
2018-10-17T03:35:29.757Z,99.99
2018-10-17T03:36:05.336Z,99.99
2018-10-17T03:36:40.640Z,99.99
2018-10-17T03:37:15.923Z,99.99
2018-10-17T03:37:51.118Z,99.99
2018-10-17T03:38:26.533Z,99.99
2018-10-17T03:39:01.906Z,99.99
2018-10-17T03:39:37.240Z,99.99
2018-10-17T03:40:12.563Z,99.99
2018-10-17T03:40:47.894Z,99.99
2018-10-17T03:41:23.231Z,99.99
2018-10-17T03:41:58.743Z,99.99
2018-10-17T03:42:34.224Z,99.99
2018-10-17T03:43:09.786Z,99.99
2018-10-17T03:43:44.793Z,99.99
2018-10-17T03:44:20.237Z,99.99
2018-10-17T03:44:55.576Z,99.99
2018-10-17T03:45:30.989Z,99.99
2018-10-17T03:46:06.421Z,99.99
2018-10-17T03:46:41.674Z,99.99
2018-10-17T03:47:17.260Z,99.99
2018-10-17T03:47:52.418Z,99.99
2018-10-17T03:48:27.631Z,99.99
2018-10-17T03:49:03.068Z,99.99
2018-10-17T03:49:38.359Z,99.99
2018-10-17T03:50:13.884Z,99.99
2018-10-17T03:50:49.323Z,99.99
2018-10-17T03:51:24.650Z,99.99
2018-10-17T03:52:00.207Z,99.99
2018-10-17T03:52:35.650Z,99.99
2018-10-17T03:53:11.050Z,99.99
2018-10-17T03:53:46.226Z,99.99
2018-10-17T03:54:21.554Z,99.99
2018-10-17T03:54:56.885Z,99.99
2018-10-17T03:55:32.263Z,99.99
2018-10-17T03:56:07.998Z,99.99
2018-10-17T03:56:43.221Z,99.99
2018-10-17T03:57:18.753Z,99.99
2018-10-17T03:57:53.985Z,99.99
2018-10-17T03:58:29.329Z,99.99
2018-10-17T03:59:04.842Z,99.99
2018-10-17T03:59:40.185Z,99.99
2018-10-17T04:00:15.356Z,99.99
2018-10-17T04:00:50.696Z,99.99
2018-10-17T04:01:26.009Z,99.99
2018-10-17T04:02:01.545Z,99.99
2018-10-17T04:02:36.851Z,99.99
2018-10-17T04:03:12.226Z,99.99
2018-10-17T04:03:47.552Z,99.99
2018-10-17T04:04:22.675Z,99.99
2018-10-17T04:04:57.934Z,99.99
2018-10-17T04:05:33.359Z,99.99
2018-10-17T04:06:08.585Z,99.99
2018-10-17T04:06:43.718Z,99.99
2018-10-17T04:07:18.934Z,99.99
2018-10-17T04:07:54.265Z,99.99
2018-10-17T04:08:29.585Z,99.99
2018-10-17T04:09:04.988Z,99.99
2018-10-17T04:09:40.386Z,99.99
2018-10-17T04:10:15.928Z,99.99
2018-10-17T04:10:51.730Z,99.99
2018-10-17T04:11:27.207Z,99.99
2018-10-17T04:12:03.062Z,99.99
2018-10-17T04:12:38.860Z,99.99
2018-10-17T04:13:14.359Z,99.99
2018-10-17T04:13:49.777Z,99.99
2018-10-17T04:14:25.272Z,99.99
2018-10-17T04:15:00.503Z,99.99
2018-10-17T04:15:35.800Z,99.99
2018-10-17T04:16:11.214Z,99.99
2018-10-17T04:16:46.448Z,99.99
2018-10-17T04:17:21.751Z,99.99
2018-10-17T04:17:57.113Z,99.99
2018-10-17T04:18:32.748Z,99.99
2018-10-17T04:19:08.150Z,99.99
2018-10-17T04:19:43.493Z,99.99
2018-10-17T04:20:18.722Z,99.99
2018-10-17T04:20:54.061Z,99.99
2018-10-17T04:21:29.171Z,99.99
2018-10-17T04:22:04.518Z,99.99
2018-10-17T04:22:39.845Z,99.99
2018-10-17T04:23:15.018Z,99.99
2018-10-17T04:23:50.458Z,99.99
2018-10-17T04:24:25.673Z,99.99
2018-10-17T04:25:01.205Z,99.99
2018-10-17T04:25:36.497Z,99.99
2018-10-17T04:26:11.729Z,99.99
2018-10-17T04:26:47.351Z,99.99
2018-10-17T04:27:22.583Z,99.99
2018-10-17T04:27:58.337Z,99.99
2018-10-17T04:28:33.879Z,99.99
2018-10-17T04:29:09.396Z,99.99
2018-10-17T04:29:44.611Z,99.99
2018-10-17T04:30:20.091Z,99.99
2018-10-17T04:30:55.578Z,99.99
2018-10-17T04:31:31.139Z,99.99
2018-10-17T04:32:07.070Z,99.99
2018-10-17T04:32:42.647Z,99.99
2018-10-17T04:33:18.077Z,99.99
2018-10-17T04:33:53.368Z,99.99
2018-10-17T04:34:28.703Z,99.99
2018-10-17T04:35:04.256Z,99.99
2018-10-17T04:35:39.865Z,99.99
2018-10-17T04:36:14.956Z,99.99
2018-10-17T04:36:50.165Z,99.99
2018-10-17T04:37:25.806Z,99.99
2018-10-17T04:38:01.127Z,99.99
2018-10-17T04:38:36.562Z,99.99
2018-10-17T04:39:12.141Z,99.99
2018-10-17T04:39:47.509Z,99.99
2018-10-17T04:40:22.744Z,99.99
2018-10-17T04:40:58.069Z,99.99
2018-10-17T04:41:33.280Z,99.99
2018-10-17T04:42:08.735Z,99.99
2018-10-17T04:42:44.038Z,99.99
2018-10-17T04:43:19.258Z,99.99
2018-10-17T04:43:54.637Z,99.99
2018-10-17T04:44:29.765Z,99.99
2018-10-17T04:45:05.197Z,99.99
2018-10-17T04:45:40.758Z,99.99
2018-10-17T04:46:15.977Z,99.99
2018-10-17T04:46:51.312Z,99.99
2018-10-17T04:47:27.068Z,99.99
2018-10-17T04:48:02.684Z,99.99
2018-10-17T04:48:37.864Z,99.99
2018-10-17T04:49:13.311Z,99.99
2018-10-17T04:49:48.866Z,99.99
2018-10-17T04:50:24.430Z,99.99
2018-10-17T04:50:59.854Z,99.99
2018-10-17T04:51:35.392Z,99.99
2018-10-17T04:52:11.050Z,99.99
2018-10-17T04:52:46.356Z,99.99
2018-10-17T04:53:21.862Z,99.99
2018-10-17T04:53:57.180Z,99.99
2018-10-17T04:54:32.439Z,99.99
2018-10-17T04:55:07.710Z,99.99
2018-10-17T04:55:43.005Z,99.99
2018-10-17T04:56:18.499Z,99.99
2018-10-17T04:56:53.793Z,99.99
2018-10-17T04:57:29.230Z,99.99
2018-10-17T04:58:04.567Z,99.99
2018-10-17T04:58:40.052Z,99.99
2018-10-17T04:59:15.474Z,99.99
2018-10-17T04:59:50.509Z,99.99
2018-10-17T05:00:26.164Z,99.99
2018-10-17T05:01:01.465Z,99.99
2018-10-17T05:01:36.715Z,99.99
2018-10-17T05:02:12.177Z,99.99
2018-10-17T05:02:47.504Z,99.99
2018-10-17T05:03:22.955Z,99.99
2018-10-17T05:03:58.218Z,99.99
2018-10-17T05:04:33.863Z,99.99
2018-10-17T05:05:09.403Z,99.99
2018-10-17T05:05:44.601Z,99.99
2018-10-17T05:06:20.034Z,99.99
2018-10-17T05:06:55.511Z,99.99
2018-10-17T05:07:30.800Z,99.99
2018-10-17T05:08:06.247Z,99.99
2018-10-17T05:08:41.480Z,99.99
2018-10-17T05:09:17.025Z,99.99
2018-10-17T05:09:52.028Z,99.99
2018-10-17T05:10:27.661Z,99.99
2018-10-17T05:11:03.412Z,99.99
2018-10-17T05:11:38.848Z,99.99
2018-10-17T05:12:14.674Z,99.99
2018-10-17T05:12:49.978Z,99.99
2018-10-17T05:13:25.129Z,99.99
2018-10-17T05:14:00.524Z,99.99
2018-10-17T05:14:36.210Z,99.99
2018-10-17T05:15:11.337Z,99.99
2018-10-17T05:15:46.753Z,99.99
2018-10-17T05:16:22.282Z,99.99
2018-10-17T05:16:57.619Z,99.99
2018-10-17T05:17:33.192Z,99.99
2018-10-17T05:18:08.782Z,99.99
2018-10-17T05:18:44.245Z,99.99
2018-10-17T05:19:19.707Z,99.99
2018-10-17T05:19:54.900Z,99.99
2018-10-17T05:20:30.232Z,99.99
2018-10-17T05:21:05.644Z,99.99
2018-10-17T05:21:40.991Z,99.99
2018-10-17T05:22:16.657Z,99.99
2018-10-17T05:22:52.099Z,99.99
2018-10-17T05:23:27.328Z,99.99
2018-10-17T05:24:02.643Z,99.99
2018-10-17T05:24:38.427Z,99.99
2018-10-17T05:25:14.075Z,99.99
2018-10-17T05:25:49.211Z,99.99
2018-10-17T05:26:24.463Z,99.99
2018-10-17T05:27:00.073Z,99.99
2018-10-17T05:27:35.499Z,99.99
2018-10-17T05:28:10.712Z,99.99
2018-10-17T05:28:45.965Z,99.99
2018-10-17T05:29:21.736Z,99.99
2018-10-17T05:29:57.049Z,99.99
2018-10-17T05:30:32.368Z,99.99
2018-10-17T05:31:07.739Z,99.99
2018-10-17T05:31:42.908Z,99.99
2018-10-17T05:32:18.254Z,99.99
2018-10-17T05:32:53.634Z,99.99
2018-10-17T05:33:29.080Z,99.99
2018-10-17T05:34:04.414Z,99.99
2018-10-17T05:34:39.865Z,99.99
2018-10-17T05:35:15.423Z,99.99
2018-10-17T05:35:50.666Z,99.99
2018-10-17T05:36:26.102Z,99.99
2018-10-17T05:37:01.534Z,99.99
2018-10-17T05:37:37.341Z,99.99
2018-10-17T05:38:12.576Z,99.99
2018-10-17T05:38:48.010Z,99.99
2018-10-17T05:39:23.365Z,99.99
2018-10-17T05:39:58.806Z,99.99
2018-10-17T05:40:33.928Z,99.99
2018-10-17T05:41:09.248Z,99.99
2018-10-17T05:41:44.680Z,99.99
2018-10-17T05:42:19.992Z,99.99
2018-10-17T05:42:55.260Z,99.99
2018-10-17T05:43:30.876Z,99.99
2018-10-17T05:44:06.066Z,99.99
2018-10-17T05:44:41.240Z,99.99
2018-10-17T05:45:16.541Z,99.99
2018-10-17T05:45:51.861Z,99.99
2018-10-17T05:46:27.087Z,99.99
2018-10-17T05:47:02.414Z,99.99
2018-10-17T05:47:37.593Z,99.99
2018-10-17T05:48:12.925Z,99.99
2018-10-17T05:48:48.255Z,99.99
2018-10-17T05:49:23.604Z,99.99
2018-10-17T05:49:59.441Z,99.99
2018-10-17T05:50:34.901Z,99.99
2018-10-17T05:51:10.095Z,99.99
2018-10-17T05:51:45.455Z,99.99
2018-10-17T05:52:20.885Z,99.99
2018-10-17T05:52:56.534Z,99.99
2018-10-17T05:53:32.276Z,99.99
2018-10-17T05:54:07.785Z,99.99
2018-10-17T05:54:43.540Z,99.99
2018-10-17T05:55:18.809Z,99.99
2018-10-17T05:55:54.019Z,99.99
2018-10-17T05:56:29.613Z,99.99
2018-10-17T05:57:05.248Z,99.99
2018-10-17T05:57:40.527Z,99.99
2018-10-17T05:58:16.043Z,99.99
2018-10-17T05:58:51.581Z,99.99
2018-10-17T05:59:26.747Z,99.99
2018-10-17T06:00:01.969Z,99.99
2018-10-17T06:00:38.398Z,99.99
2018-10-17T06:01:13.722Z,99.99
2018-10-17T06:01:49.123Z,99.99
2018-10-17T06:02:24.256Z,99.99
2018-10-17T06:02:59.635Z,99.99
2018-10-17T06:03:35.350Z,99.99
2018-10-17T06:04:10.643Z,99.99
2018-10-17T06:04:46.227Z,99.99
2018-10-17T06:05:21.354Z,99.99
2018-10-17T06:05:56.717Z,99.99
2018-10-17T06:06:32.045Z,99.99
2018-10-17T06:07:07.458Z,99.99
2018-10-17T06:07:42.677Z,99.99
2018-10-17T06:08:18.209Z,99.99
2018-10-17T06:08:53.541Z,99.99
2018-10-17T06:09:28.959Z,99.99
2018-10-17T06:10:04.136Z,99.99
2018-10-17T06:10:39.572Z,99.99
2018-10-17T06:11:15.038Z,99.99
2018-10-17T06:11:50.558Z,99.99
2018-10-17T06:12:25.791Z,99.99
2018-10-17T06:13:01.255Z,99.99
2018-10-17T06:13:36.595Z,99.99
2018-10-17T06:14:11.829Z,99.99
2018-10-17T06:14:47.290Z,99.99
2018-10-17T06:15:22.582Z,99.99
2018-10-17T06:15:57.929Z,99.99
2018-10-17T06:16:33.158Z,99.99
2018-10-17T06:17:08.575Z,99.99
2018-10-17T06:17:43.717Z,99.99
2018-10-17T06:18:19.124Z,99.99
2018-10-17T06:18:54.575Z,99.99
2018-10-17T06:19:29.710Z,99.99
2018-10-17T06:20:05.080Z,99.99
2018-10-17T06:20:41.627Z,99.99
2018-10-17T06:21:16.915Z,99.99
2018-10-17T06:21:52.253Z,99.99
2018-10-17T06:22:27.464Z,99.99
2018-10-17T06:23:02.772Z,99.99
2018-10-17T06:23:38.263Z,99.99
2018-10-17T06:24:13.565Z,99.99
2018-10-17T06:24:49.123Z,99.99
2018-10-17T06:25:24.499Z,99.99
2018-10-17T06:25:59.929Z,99.99
2018-10-17T06:26:35.569Z,99.99
2018-10-17T06:27:10.977Z,99.99
2018-10-17T06:27:46.314Z,99.99
2018-10-17T06:28:21.955Z,99.99
2018-10-17T06:28:57.294Z,99.99
2018-10-17T06:29:32.876Z,99.99
2018-10-17T06:30:08.578Z,99.99
2018-10-17T06:30:43.799Z,99.99
2018-10-17T06:31:19.147Z,99.99
2018-10-17T06:31:54.414Z,99.99
2018-10-17T06:32:29.896Z,99.99
2018-10-17T06:33:05.129Z,99.99
2018-10-17T06:33:40.609Z,99.99
2018-10-17T06:34:16.107Z,99.99
2018-10-17T06:34:51.447Z,99.99
2018-10-17T06:35:26.536Z,99.99
2018-10-17T06:36:01.866Z,99.99
2018-10-17T06:36:37.405Z,99.99
2018-10-17T06:37:12.665Z,99.99
2018-10-17T06:37:48.123Z,99.99
2018-10-17T06:38:23.354Z,99.99
2018-10-17T06:38:58.896Z,99.99
2018-10-17T06:39:34.352Z,99.99
2018-10-17T06:40:09.693Z,99.99
2018-10-17T06:40:45.060Z,99.99
2018-10-17T06:41:20.577Z,99.99
2018-10-17T06:41:56.137Z,99.99
2018-10-17T06:42:31.472Z,99.99
2018-10-17T06:43:06.839Z,99.99
2018-10-17T06:43:42.291Z,99.99
2018-10-17T06:44:17.756Z,99.99
2018-10-17T06:44:53.191Z,99.99
2018-10-17T06:45:28.730Z,99.99
2018-10-17T06:46:04.350Z,99.99
2018-10-17T06:46:39.705Z,99.99
2018-10-17T06:47:15.525Z,99.99
2018-10-17T06:47:51.173Z,99.99
2018-10-17T06:48:26.389Z,99.99
2018-10-17T06:49:01.846Z,99.99
2018-10-17T06:49:37.289Z,99.99
2018-10-17T06:50:12.548Z,99.99
2018-10-17T06:50:48.310Z,99.99
2018-10-17T06:51:23.616Z,99.99
2018-10-17T06:51:59.346Z,99.99
2018-10-17T06:52:34.777Z,99.99
2018-10-17T06:53:10.601Z,99.99
2018-10-17T06:53:45.849Z,99.99
2018-10-17T06:54:21.409Z,99.99
2018-10-17T06:54:56.820Z,99.99
2018-10-17T06:55:32.242Z,99.99
2018-10-17T06:56:07.480Z,99.99
2018-10-17T06:56:42.583Z,99.99
2018-10-17T06:57:18.180Z,99.99
2018-10-17T06:57:53.542Z,99.99
2018-10-17T06:58:28.734Z,99.99
2018-10-17T06:59:04.244Z,99.99
2018-10-17T06:59:39.786Z,99.99
2018-10-17T07:00:15.345Z,99.99
2018-10-17T07:00:50.889Z,99.99
2018-10-17T07:01:26.509Z,99.99
2018-10-17T07:02:02.022Z,99.99
2018-10-17T07:02:37.308Z,99.99
2018-10-17T07:03:12.755Z,99.99
2018-10-17T07:03:48.199Z,99.99
2018-10-17T07:04:23.514Z,99.99
2018-10-17T07:04:59.058Z,99.99
2018-10-17T07:05:34.326Z,99.99
2018-10-17T07:06:10.018Z,99.99
2018-10-17T07:06:45.267Z,99.99
2018-10-17T07:07:20.497Z,99.99
2018-10-17T07:07:55.842Z,99.99
2018-10-17T07:08:31.215Z,99.99
2018-10-17T07:09:06.559Z,99.99
2018-10-17T07:09:41.989Z,99.99
2018-10-17T07:10:17.343Z,99.99
2018-10-17T07:10:52.619Z,99.99
2018-10-17T07:11:27.949Z,99.99
2018-10-17T07:12:03.276Z,99.99
2018-10-17T07:12:38.698Z,99.99
2018-10-17T07:13:13.994Z,99.99
2018-10-17T07:13:49.333Z,99.99
2018-10-17T07:14:24.668Z,99.99
2018-10-17T07:15:00.018Z,99.99
2018-10-17T07:15:35.532Z,99.99
2018-10-17T07:16:10.722Z,99.99
2018-10-17T07:16:45.816Z,99.99
2018-10-17T07:17:21.255Z,99.99
2018-10-17T07:17:56.524Z,99.99
2018-10-17T07:18:31.753Z,99.99
2018-10-17T07:19:07.229Z,99.99
2018-10-17T07:19:42.852Z,99.99
2018-10-17T07:20:18.296Z,99.99
2018-10-17T07:20:53.674Z,99.99
2018-10-17T07:21:28.841Z,99.99
2018-10-17T07:22:04.182Z,99.99
2018-10-17T07:22:39.542Z,99.99
2018-10-17T07:23:15.071Z,99.99
2018-10-17T07:23:50.408Z,99.99
2018-10-17T07:24:25.665Z,99.91
2018-10-17T07:25:01.014Z,99.99
2018-10-17T07:25:36.296Z,99.96
2018-10-17T07:26:11.655Z,99.24
2018-10-17T07:26:47.085Z,99.29
2018-10-17T07:27:22.543Z,99.77
2018-10-17T07:27:57.796Z,99.67
2018-10-17T07:28:33.033Z,99.96
2018-10-17T07:29:08.367Z,99.48
2018-10-17T07:29:43.548Z,99.58
2018-10-17T07:30:18.566Z,99.10
2018-10-17T07:30:54.009Z,98.62
2018-10-17T07:31:29.158Z,99.19
2018-10-17T07:32:04.776Z,99.67
2018-10-17T07:32:40.084Z,99.58
2018-10-17T07:33:15.346Z,99.48
2018-10-17T07:33:50.742Z,99.29
2018-10-17T07:34:26.510Z,99.29
2018-10-17T07:35:01.731Z,99.58
2018-10-17T07:35:37.290Z,99.00
2018-10-17T07:36:12.682Z,99.19
2018-10-17T07:36:48.289Z,99.10